createdAt,value
2022-08-02T00:03:16.805Z,3.35
2022-08-02T00:06:39.925Z,3.70
2022-08-02T00:10:01.495Z,3.30
2022-08-02T00:13:23.286Z,3.38
2022-08-02T00:16:53.848Z,3.30
2022-08-02T00:20:19.023Z,3.40
2022-08-02T00:24:03.355Z,3.47
2022-08-02T00:27:22.521Z,3.50
2022-08-02T00:30:44.446Z,3.60
2022-08-02T00:34:28.593Z,3.17
2022-08-02T00:37:49.313Z,3.33
2022-08-02T00:41:17.575Z,3.63
2022-08-02T00:44:39.412Z,3.10
2022-08-02T00:48:01.057Z,3.67
2022-08-02T00:51:22.649Z,3.90
2022-08-02T00:54:45.819Z,3.83
2022-08-02T00:58:08.253Z,3.75
2022-08-02T01:01:57.385Z,3.97
2022-08-02T01:05:20.022Z,4.10
2022-08-02T01:08:41.695Z,3.55
2022-08-02T01:12:08.559Z,3.65
2022-08-02T01:15:36.176Z,3.88
2022-08-02T01:19:03.415Z,3.70
2022-08-02T01:23:03.680Z,3.47
2022-08-02T01:26:42.057Z,3.80
2022-08-02T01:30:07.212Z,3.50
2022-08-02T01:33:36.393Z,3.60
2022-08-02T01:37:03.612Z,3.63
2022-08-02T01:40:31.584Z,3.55
2022-08-02T01:43:59.229Z,3.63
2022-08-02T01:47:25.552Z,3.78
2022-08-02T01:50:50.191Z,3.40
2022-08-02T01:54:15.518Z,3.35
2022-08-02T01:57:42.083Z,3.40
2022-08-02T02:01:05.775Z,3.30
2022-08-02T02:04:31.968Z,3.55
2022-08-02T02:07:56.792Z,3.60
2022-08-02T02:12:10.157Z,3.53
2022-08-02T02:15:01.853Z,3.70
2022-08-02T02:18:26.581Z,3.42
2022-08-02T02:21:49.900Z,3.58
2022-08-02T02:25:15.034Z,3.22
2022-08-02T02:28:40.829Z,3.53
2022-08-02T02:32:06.475Z,3.53
2022-08-02T02:35:31.274Z,3.00
2022-08-02T02:38:58.390Z,3.40
2022-08-02T02:42:22.136Z,3.83
2022-08-02T02:45:46.018Z,3.58
2022-08-02T02:49:09.457Z,3.38
2022-08-02T02:52:32.636Z,3.75
2022-08-02T02:56:01.915Z,3.35
2022-08-02T02:59:25.023Z,3.72
2022-08-02T03:02:48.221Z,3.78
2022-08-02T03:06:15.006Z,3.35
2022-08-02T03:09:37.278Z,3.40
2022-08-02T03:13:00.965Z,3.20
2022-08-02T03:16:22.715Z,3.30
2022-08-02T03:19:44.337Z,3.50
2022-08-02T03:23:06.005Z,3.40
2022-08-02T03:26:28.942Z,3.45
2022-08-02T03:29:52.264Z,3.95
2022-08-02T03:33:14.245Z,3.63
2022-08-02T03:36:37.387Z,3.38
2022-08-02T03:40:00.143Z,3.47
2022-08-02T03:43:22.814Z,3.50
2022-08-02T03:46:47.238Z,3.47
2022-08-02T03:50:12.303Z,3.60
2022-08-02T03:53:34.879Z,3.47
2022-08-02T03:56:56.769Z,3.78
2022-08-02T04:00:20.299Z,3.90
2022-08-02T04:03:43.243Z,3.92
2022-08-02T04:07:07.324Z,3.70
2022-08-02T04:10:29.212Z,3.70
2022-08-02T04:13:51.141Z,4.63
2022-08-02T04:17:14.742Z,3.95
2022-08-02T04:20:39.602Z,4.05
2022-08-02T04:24:03.451Z,4.07
2022-08-02T04:28:15.441Z,3.70
2022-08-02T04:31:09.082Z,3.20
2022-08-02T04:34:31.084Z,3.55
2022-08-02T04:38:08.816Z,3.53
2022-08-02T04:41:43.889Z,3.60
2022-08-02T04:45:07.280Z,3.38
2022-08-02T04:48:28.908Z,3.83
2022-08-02T04:51:50.725Z,3.63
2022-08-02T04:55:14.194Z,4.03
2022-08-02T04:58:40.680Z,3.88
2022-08-02T05:02:02.485Z,3.92
2022-08-02T05:05:24.761Z,3.60
2022-08-02T05:08:46.747Z,3.90
2022-08-02T05:12:15.889Z,4.10
2022-08-02T05:15:37.745Z,4.68
2022-08-02T05:18:59.727Z,4.32
2022-08-02T05:22:21.363Z,4.60
2022-08-02T05:25:43.544Z,5.13
2022-08-02T05:29:06.740Z,4.95
2022-08-02T05:32:28.663Z,4.85
2022-08-02T05:35:50.593Z,5.22
2022-08-02T05:39:15.063Z,4.68
2022-08-02T05:42:40.966Z,4.93
2022-08-02T05:46:04.296Z,4.40
2022-08-02T05:49:26.128Z,4.93
2022-08-02T05:52:52.764Z,4.93
2022-08-02T05:56:20.907Z,4.10
2022-08-02T05:59:55.263Z,4.35
2022-08-02T06:03:24.936Z,4.25
2022-08-02T06:06:50.873Z,4.35
2022-08-02T06:10:14.368Z,4.18
2022-08-02T06:13:36.180Z,4.50
2022-08-02T06:16:58.447Z,4.00
2022-08-02T06:20:22.497Z,4.07
2022-08-02T06:23:57.539Z,3.80
2022-08-02T06:27:22.829Z,3.90
2022-08-02T06:30:45.769Z,3.85
2022-08-02T06:34:07.764Z,3.63
2022-08-02T06:37:39.022Z,3.75
2022-08-02T06:41:06.070Z,3.30
2022-08-02T06:44:49.662Z,3.47
2022-08-02T06:48:12.419Z,3.30
2022-08-02T06:51:34.532Z,3.70
2022-08-02T06:54:58.227Z,3.63
2022-08-02T06:58:20.281Z,3.25
2022-08-02T07:01:42.835Z,2.75
2022-08-02T07:05:05.050Z,3.10
2022-08-02T07:08:26.587Z,3.60
2022-08-02T07:11:50.298Z,3.40
2022-08-02T07:15:13.834Z,2.80
2022-08-02T07:18:35.854Z,3.25
2022-08-02T07:22:00.503Z,2.47
2022-08-02T07:26:02.621Z,2.75
2022-08-02T07:29:15.208Z,2.53
2022-08-02T07:32:37.241Z,2.70
2022-08-02T07:35:58.907Z,2.40
2022-08-02T07:39:26.090Z,2.25
2022-08-02T07:42:52.192Z,2.40
2022-08-02T07:46:15.447Z,2.10
2022-08-02T07:49:37.227Z,2.70
2022-08-02T07:52:58.933Z,2.45
2022-08-02T07:56:20.688Z,2.40
2022-08-02T07:59:42.455Z,2.85
2022-08-02T08:03:06.372Z,4.60
2022-08-02T08:06:28.840Z,2.45
2022-08-02T08:09:51.166Z,2.53
2022-08-02T08:13:17.909Z,2.35
2022-08-02T08:16:39.590Z,2.22
2022-08-02T08:20:03.175Z,2.30
2022-08-02T08:23:24.657Z,2.20
2022-08-02T08:26:46.419Z,4.00
2022-08-02T08:30:09.717Z,3.85
2022-08-02T08:33:31.507Z,2.58
2022-08-02T08:36:54.719Z,2.30
2022-08-02T08:40:19.308Z,3.10
2022-08-02T08:43:41.655Z,2.90
2022-08-02T08:47:04.893Z,2.65
2022-08-02T08:50:36.591Z,2.40
2022-08-02T08:54:03.944Z,2.60
2022-08-02T08:57:25.972Z,2.38
2022-08-02T09:00:48.160Z,2.40
2022-08-02T09:04:12.623Z,2.38
2022-08-02T09:07:34.573Z,2.60
2022-08-02T09:10:57.862Z,2.50
2022-08-02T09:14:29.183Z,2.20
2022-08-02T09:17:51.872Z,2.40
2022-08-02T09:21:15.299Z,2.03
2022-08-02T09:24:45.240Z,2.72
2022-08-02T09:28:08.468Z,3.63
2022-08-02T09:31:30.351Z,2.45
2022-08-02T09:34:54.021Z,2.30
2022-08-02T09:38:16.160Z,1.70
2022-08-02T09:41:41.172Z,2.13
2022-08-02T09:45:05.744Z,1.80
2022-08-02T09:48:27.613Z,1.85
2022-08-02T09:51:51.866Z,1.88
2022-08-02T09:55:14.264Z,2.50
2022-08-02T09:58:39.879Z,1.60
2022-08-02T10:02:14.634Z,2.00
2022-08-02T10:05:55.534Z,1.67
2022-08-02T10:09:19.118Z,1.30
2022-08-02T10:12:40.991Z,1.38
2022-08-02T10:16:03.522Z,1.38
2022-08-02T10:19:38.815Z,1.77
2022-08-02T10:23:11.410Z,1.80
2022-08-02T10:26:33.661Z,1.67
2022-08-02T10:29:58.911Z,1.80
2022-08-02T10:33:21.264Z,1.70
2022-08-02T10:36:44.940Z,1.70
2022-08-02T10:40:23.035Z,1.63
2022-08-02T10:43:48.934Z,2.10
2022-08-02T10:47:22.044Z,1.77
2022-08-02T10:50:56.601Z,2.10
2022-08-02T10:54:21.794Z,1.60
2022-08-02T10:57:48.777Z,1.80
2022-08-02T11:01:38.612Z,6.50
2022-08-02T11:05:09.395Z,1.90
2022-08-02T11:08:31.102Z,1.90
2022-08-02T11:12:04.557Z,2.00
2022-08-02T11:15:26.327Z,2.13
2022-08-02T11:19:06.812Z,2.10
2022-08-02T11:22:28.834Z,2.30
2022-08-02T11:26:03.749Z,2.00
2022-08-02T11:29:39.794Z,2.95
2022-08-02T11:33:01.756Z,1.92
2022-08-02T11:36:24.064Z,3.00
2022-08-02T11:39:51.660Z,1.80
2022-08-02T11:43:23.728Z,2.13
2022-08-02T11:46:45.755Z,4.00
2022-08-02T11:50:09.206Z,2.25
2022-08-02T11:53:30.752Z,1.90
2022-08-02T11:56:52.621Z,3.25
2022-08-02T12:00:18.560Z,2.03
2022-08-02T12:03:40.491Z,2.03
2022-08-02T12:07:02.848Z,2.00
2022-08-02T12:10:25.591Z,1.83
2022-08-02T12:13:57.028Z,1.80
2022-08-02T12:17:47.641Z,2.45
2022-08-02T12:21:23.107Z,2.00
2022-08-02T12:24:47.819Z,2.05
2022-08-02T12:28:22.317Z,3.40
2022-08-02T12:31:56.304Z,2.13
2022-08-02T12:35:26.346Z,1.95
2022-08-02T12:38:52.956Z,1.70
2022-08-02T12:42:17.064Z,2.08
2022-08-02T12:45:49.537Z,1.98
2022-08-02T12:49:19.148Z,1.85
2022-08-02T12:52:42.483Z,1.85
2022-08-02T12:56:08.905Z,1.80
2022-08-02T12:59:39.059Z,1.95
2022-08-02T13:03:01.607Z,2.20
2022-08-02T13:06:42.024Z,2.20
2022-08-02T13:10:06.441Z,1.95
2022-08-02T13:13:28.232Z,1.70
2022-08-02T13:16:52.613Z,2.05
2022-08-02T13:20:15.353Z,1.70
2022-08-02T13:23:54.206Z,1.67
2022-08-02T13:27:18.424Z,1.98
2022-08-02T13:30:40.183Z,1.70
2022-08-02T13:34:01.789Z,1.85
2022-08-02T13:37:23.648Z,1.40
2022-08-02T13:41:06.407Z,1.90
2022-08-02T13:44:31.766Z,2.47
2022-08-02T13:48:03.292Z,2.85
2022-08-02T13:51:54.202Z,1.48
2022-08-02T13:55:18.131Z,1.58
2022-08-02T13:58:40.473Z,1.83
2022-08-02T14:02:03.830Z,1.90
2022-08-02T14:05:39.396Z,2.05
2022-08-02T14:09:08.641Z,1.88
2022-08-02T14:12:37.087Z,1.60
2022-08-02T14:15:59.873Z,1.90
2022-08-02T14:19:23.148Z,1.60
2022-08-02T14:22:44.559Z,1.60
2022-08-02T14:26:14.165Z,1.60
2022-08-02T14:29:51.328Z,1.70
2022-08-02T14:33:13.230Z,1.60
2022-08-02T14:36:38.507Z,1.90
2022-08-02T14:40:01.146Z,1.67
2022-08-02T14:43:37.041Z,2.30
2022-08-02T14:46:58.453Z,2.08
2022-08-02T14:50:20.563Z,1.63
2022-08-02T14:53:49.386Z,1.80
2022-08-02T14:57:23.991Z,1.77
2022-08-02T15:00:45.904Z,1.88
2022-08-02T15:04:07.815Z,2.10
2022-08-02T15:07:29.550Z,1.60
2022-08-02T15:10:52.747Z,1.60
2022-08-02T15:14:14.596Z,2.20
2022-08-02T15:17:36.468Z,2.00
2022-08-02T15:20:58.429Z,1.58
2022-08-02T15:24:20.847Z,1.85
2022-08-02T15:27:44.991Z,1.42
2022-08-02T15:31:06.690Z,1.60
2022-08-02T15:34:28.084Z,1.75
2022-08-02T15:37:50.059Z,1.95
2022-08-02T15:41:11.903Z,1.70
2022-08-02T15:44:35.042Z,1.75
2022-08-02T15:47:56.983Z,1.70
2022-08-02T15:51:18.459Z,1.60
2022-08-02T15:54:43.061Z,1.73
2022-08-02T15:58:04.656Z,1.55
2022-08-02T16:01:37.192Z,1.60
2022-08-02T16:05:00.201Z,1.75
2022-08-02T16:08:22.452Z,1.65
2022-08-02T16:11:44.372Z,1.60
2022-08-02T16:15:07.306Z,1.73
2022-08-02T16:18:30.655Z,1.60
2022-08-02T16:21:52.939Z,1.70
2022-08-02T16:25:17.246Z,1.90
2022-08-02T16:28:39.284Z,2.33
2022-08-02T16:32:01.003Z,2.10
2022-08-02T16:35:24.257Z,2.10
2022-08-02T16:38:46.556Z,2.03
2022-08-02T16:42:08.614Z,2.08
2022-08-02T16:45:32.564Z,2.10
2022-08-02T16:48:54.942Z,2.10
2022-08-02T16:52:19.030Z,1.80
2022-08-02T16:55:51.907Z,1.92
2022-08-02T16:59:15.151Z,1.80
2022-08-02T17:02:37.583Z,2.00
2022-08-02T17:05:59.211Z,1.83
2022-08-02T17:10:01.903Z,1.92
2022-08-02T17:13:11.414Z,2.15
2022-08-02T17:16:33.709Z,1.77
2022-08-02T17:19:57.874Z,1.95
2022-08-02T17:23:22.335Z,1.80
2022-08-02T17:26:45.720Z,2.10
2022-08-02T17:30:11.007Z,2.20
2022-08-02T17:33:32.732Z,2.05
2022-08-02T17:36:55.869Z,2.38
2022-08-02T17:40:19.602Z,2.33
2022-08-02T17:43:43.204Z,2.67
2022-08-02T17:47:08.746Z,1.88
2022-08-02T17:50:33.708Z,2.33
2022-08-02T17:53:55.242Z,1.92
2022-08-02T17:57:18.928Z,2.35
2022-08-02T18:00:42.183Z,3.03
2022-08-02T18:04:07.076Z,2.47
2022-08-02T18:07:40.683Z,2.53
2022-08-02T18:11:10.485Z,2.42
2022-08-02T18:14:32.323Z,2.70
2022-08-02T18:17:57.047Z,2.33
2022-08-02T18:21:22.575Z,2.25
2022-08-02T18:24:44.985Z,2.17
2022-08-02T18:28:06.685Z,2.33
2022-08-02T18:31:28.257Z,2.35
2022-08-02T18:34:51.598Z,1.88
2022-08-02T18:38:13.382Z,2.42
2022-08-02T18:41:36.488Z,2.45
2022-08-02T18:44:59.640Z,2.72
2022-08-02T18:48:21.843Z,2.83
2022-08-02T18:51:45.240Z,2.78
2022-08-02T18:55:10.450Z,2.55
2022-08-02T18:58:40.362Z,2.38
2022-08-02T19:02:03.727Z,2.47
2022-08-02T19:05:52.252Z,2.40
2022-08-02T19:09:13.082Z,2.47
2022-08-02T19:12:35.267Z,2.30
2022-08-02T19:15:56.981Z,2.90
2022-08-02T19:19:20.402Z,2.25
2022-08-02T19:22:42.387Z,2.40
2022-08-02T19:26:05.680Z,2.40
2022-08-02T19:29:42.973Z,2.90
2022-08-02T19:33:11.133Z,2.72
2022-08-02T19:36:49.176Z,3.00
2022-08-02T19:40:14.015Z,2.97
2022-08-02T19:44:26.509Z,3.55
2022-08-02T19:47:19.658Z,2.90
2022-08-02T19:50:48.953Z,2.80
2022-08-02T19:54:11.060Z,2.90
2022-08-02T20:01:20.679Z,3.28
2022-08-02T20:04:50.123Z,3.00
2022-08-02T20:08:14.428Z,3.17
2022-08-02T20:11:55.894Z,3.03
2022-08-02T20:15:17.789Z,3.03
2022-08-02T20:18:41.695Z,2.83
2022-08-02T20:22:05.399Z,3.10
2022-08-02T20:25:28.879Z,2.80
2022-08-02T20:28:50.527Z,2.70
2022-08-02T20:32:14.741Z,2.67
2022-08-02T20:35:38.245Z,2.88
2022-08-02T20:39:05.092Z,2.97
2022-08-02T20:42:26.966Z,3.35
2022-08-02T20:45:49.114Z,2.83
2022-08-02T20:49:18.749Z,2.70
2022-08-02T20:52:48.335Z,2.72
2022-08-02T20:56:09.966Z,2.50
2022-08-02T20:59:37.352Z,2.60
2022-08-02T21:02:59.512Z,2.60
2022-08-02T21:06:21.477Z,2.60
2022-08-02T21:09:53.744Z,2.58
2022-08-02T21:13:22.277Z,3.15
2022-08-02T21:16:44.196Z,3.25
2022-08-02T21:20:06.975Z,2.88
2022-08-02T21:23:29.441Z,3.50
2022-08-02T21:26:52.597Z,3.38
2022-08-02T21:30:17.851Z,3.45
2022-08-02T21:33:57.869Z,3.05
2022-08-02T21:37:20.326Z,2.95
2022-08-02T21:40:42.141Z,2.80
2022-08-02T21:44:08.609Z,3.22
2022-08-02T21:47:30.397Z,3.08
2022-08-02T21:50:52.602Z,3.15
2022-08-02T21:54:17.796Z,2.92
2022-08-02T21:57:41.127Z,3.03
2022-08-02T22:01:04.665Z,3.17
2022-08-02T22:04:27.944Z,3.30
2022-08-02T22:07:50.556Z,3.67
2022-08-02T22:11:17.307Z,2.95
2022-08-02T22:14:39.804Z,3.40
2022-08-02T22:18:02.909Z,3.53
2022-08-02T22:21:29.038Z,3.60
2022-08-02T22:25:21.336Z,3.90
2022-08-02T22:28:52.816Z,3.75
2022-08-02T22:32:37.377Z,3.40
2022-08-02T22:35:59.792Z,3.35
2022-08-02T22:39:21.515Z,3.42
2022-08-02T22:42:42.878Z,3.55
2022-08-02T22:46:04.982Z,3.28
2022-08-02T22:49:37.657Z,3.20
2022-08-02T22:53:08.556Z,3.67
2022-08-02T22:56:30.390Z,3.88
2022-08-02T22:58:54.019Z,3.65
2022-08-02T22:59:52.079Z,3.83
2022-08-02T23:03:13.929Z,3.75
2022-08-02T23:06:35.642Z,3.47
2022-08-02T23:10:00.551Z,3.55
2022-08-02T23:13:26.625Z,3.38
2022-08-02T23:17:07.190Z,3.60
2022-08-02T23:20:28.795Z,3.85
2022-08-02T23:23:50.317Z,3.67
2022-08-02T23:27:13.551Z,3.67
2022-08-02T23:30:35.371Z,3.45
2022-08-02T23:33:58.434Z,3.50
2022-08-02T23:37:26.851Z,3.60
2022-08-02T23:40:48.651Z,4.18
2022-08-02T23:44:14.219Z,3.60
2022-08-02T23:47:36.295Z,3.72
2022-08-02T23:50:58.049Z,3.50
2022-08-02T23:54:20.490Z,3.30
2022-08-02T23:57:42.013Z,3.83
